KMLI/MLI METAR and TAF weather

Enter ICAO airport designator
Station Type Date Time Source
KMLI METAR 2019/02/21 11:52 UTC NOAA

KMLI 211152Z 24004KT 8SM CLR M06/M09 A3010 RMK AO2 SLP201 70005 T10561089 11011 21056 53027


Station Type Date Time Source
KMLI Decoded METAR 2019/02/21 11:52 UTC NOAA

MOLINE QUAD-CITY AIRPORT, IL, United States (KMLI) 41-27N 90-31W 184M
Feb 21, 2019 - 06:52 AM EST / 2019.02.21 1152 UTC
Wind: from the WSW (240 degrees) at 5 MPH (4 KT):0
Visibility: 8 mile(s):0
Sky conditions: clear
Temperature: 21.9 F (-5.6 C)
Windchill: 15 F (-9 C):1
Dew Point: 16.0 F (-8.9 C)
Relative Humidity: 77%
Pressure (altimeter): 30.1 in. Hg (1019 hPa)
Pressure tendency: 0.08 inches (2.7 hPa) higher than three hours ago
ob: KMLI 211152Z 24004KT 8SM CLR M06/M09 A3010 RMK AO2 SLP201 70005 T10561089 11011 21056 53027
cycle: 12

Station Type Date Time Source
KMLI TAF 2019/02/21 12:39 UTC NOAA

TAF KMLI 211136Z 2112/2212 27008KT P6SM FEW250
FM212300 29005KT P6SM BKN250
FM220700 05002KT 4SM BR BKN250


Example: see airport list